Time;durP1;ratioP1;P1;durP2;ratioP2;P2;SDS_P1;SDS_P2;PMS_P1;PMS_P2;Temp;Humidity;BMP_temperature;BMP_pressure;BME280_temperature;BME280_humidity;BME280_pressure;Samples;Min_cycle;Max_cycle;Signal;HPM_P1;HPM_P2
2022/04/29 00:00:17;;;;;;;9.17;6.83;;;5.30;99.90;;;;;;5053855;28;20025;-83
2022/04/29 00:02:45;;;;;;;16.17;7.87;;;5.30;99.90;;;;;;5053655;28;20017;-83
2022/04/29 00:05:11;;;;;;;10.47;6.80;;;5.20;99.90;;;;;;5053766;28;20442;-83
2022/04/29 00:07:39;;;;;;;8.63;6.47;;;5.30;99.90;;;;;;5053003;28;20461;-83
2022/04/29 00:10:06;;;;;;;9.90;6.73;;;5.20;99.90;;;;;;5036947;28;20529;-83
2022/04/29 00:12:32;;;;;;;10.87;7.07;;;5.30;99.90;;;;;;5053901;28;20028;-83
2022/04/29 00:14:59;;;;;;;9.00;6.73;;;5.20;99.90;;;;;;5053874;28;20535;-83
2022/04/29 00:17:24;;;;;;;11.07;7.10;;;5.20;99.90;;;;;;5053837;28;20021;-83
2022/04/29 00:19:50;;;;;;;11.17;7.10;;;5.10;99.90;;;;;;5053571;28;20355;-83
2022/04/29 00:22:16;;;;;;;9.17;6.57;;;5.10;99.90;;;;;;5054008;28;20151;-83
2022/04/29 00:24:42;;;;;;;9.50;7.23;;;5.10;99.90;;;;;;5053565;28;20092;-83
2022/04/29 00:27:08;;;;;;;10.40;7.10;;;5.00;99.90;;;;;;5052347;28;20539;-82
2022/04/29 00:29:33;;;;;;;11.87;6.70;;;5.00;99.90;;;;;;5053689;28;20078;-83
2022/04/29 00:31:59;;;;;;;9.23;6.50;;;5.10;99.90;;;;;;5035862;28;20040;-83
2022/04/29 00:34:24;;;;;;;9.20;7.10;;;5.00;99.90;;;;;;5054052;28;20029;-83
2022/04/29 00:36:50;;;;;;;16.77;8.00;;;5.00;99.90;;;;;;5054149;28;20021;-83
2022/04/29 00:39:15;;;;;;;13.93;7.53;;;4.90;99.90;;;;;;5053943;28;20028;-82
2022/04/29 00:41:44;;;;;;;9.47;7.10;;;4.80;99.90;;;;;;5053662;28;20029;-82
2022/04/29 00:44:13;;;;;;;10.00;7.30;;;4.80;99.90;;;;;;5053869;28;20373;-82
2022/04/29 00:46:40;;;;;;;12.37;7.50;;;4.70;99.90;;;;;;5053831;28;20099;-83
2022/04/29 00:49:09;;;;;;;9.57;7.87;;;4.70;99.90;;;;;;5053597;28;20165;-82
2022/04/29 00:51:34;;;;;;;10.87;7.80;;;4.70;99.90;;;;;;5053434;28;20120;-83
2022/04/29 00:54:02;;;;;;;10.20;6.90;;;4.70;99.90;;;;;;5035580;28;20067;-83
2022/04/29 00:56:31;;;;;;;11.20;7.63;;;4.70;99.90;;;;;;5053275;28;20179;-83
2022/04/29 00:59:21;;;;;;;9.43;7.00;;;4.60;99.90;;;;;;5035305;28;20029;-82
2022/04/29 01:01:47;;;;;;;9.33;6.60;;;4.60;99.90;;;;;;5053418;28;20522;-82
2022/04/29 01:04:19;;;;;;;12.80;6.90;;;4.60;99.90;;;;;;5053499;28;20104;-82
2022/04/29 01:06:44;;;;;;;8.50;6.43;;;4.60;99.90;;;;;;5052875;28;20053;-82
2022/04/29 01:09:10;;;;;;;11.27;7.43;;;4.60;99.90;;;;;;5053116;28;20381;-82
2022/04/29 01:11:37;;;;;;;8.03;6.63;;;4.60;99.90;;;;;;5039521;28;20112;-82
2022/04/29 01:14:03;;;;;;;8.17;6.53;;;4.60;99.90;;;;;;5033091;28;20021;-82
2022/04/29 01:16:28;;;;;;;10.10;6.40;;;4.50;99.90;;;;;;5034865;28;20036;-83
2022/04/29 01:18:54;;;;;;;9.30;7.40;;;4.60;99.90;;;;;;5053058;28;20025;-82
2022/04/29 01:21:20;;;;;;;11.73;7.10;;;4.50;99.90;;;;;;5052786;28;20021;-82
2022/04/29 01:23:46;;;;;;;10.53;6.63;;;4.50;99.90;;;;;;5053130;28;20025;-83
2022/04/29 01:26:15;;;;;;;10.80;7.03;;;4.50;99.90;;;;;;5052949;28;20555;-83
2022/04/29 01:28:44;;;;;;;11.63;7.13;;;4.40;99.90;;;;;;5053004;28;20029;-83
2022/04/29 01:31:12;;;;;;;8.57;6.73;;;4.40;99.90;;;;;;5034742;28;20074;-83
2022/04/29 01:33:44;;;;;;;13.13;6.40;;;4.30;99.90;;;;;;5052766;28;20358;-83
2022/04/29 01:36:10;;;;;;;14.60;7.03;;;4.30;99.90;;;;;;5034832;28;20032;-82
2022/04/29 01:38:37;;;;;;;11.77;7.30;;;4.20;99.90;;;;;;5052466;28;20028;-83
2022/04/29 01:41:04;;;;;;;8.83;6.43;;;4.20;99.90;;;;;;5052815;28;20029;-83
2022/04/29 01:43:31;;;;;;;12.17;6.63;;;4.20;99.90;;;;;;5052770;28;20069;-82
2022/04/29 01:45:56;;;;;;;10.97;7.17;;;4.10;99.90;;;;;;5052475;28;20024;-83
2022/04/29 01:48:23;;;;;;;10.67;7.33;;;4.10;99.90;;;;;;5034686;28;20029;-83
2022/04/29 01:50:49;;;;;;;9.70;7.20;;;4.10;99.90;;;;;;5052500;28;20083;-83
2022/04/29 01:53:14;;;;;;;13.70;7.33;;;4.10;99.90;;;;;;5052420;28;20027;-83
2022/04/29 01:55:40;;;;;;;9.47;6.90;;;4.10;99.90;;;;;;5046277;28;20436;-83
2022/04/29 01:58:20;;;;;;;9.50;6.33;;;4.10;99.90;;;;;;5052387;28;20501;-83
2022/04/29 02:00:46;;;;;;;10.77;6.40;;;4.10;99.90;;;;;;5052359;28;20163;-83
2022/04/29 02:03:11;;;;;;;14.93;7.17;;;4.00;99.90;;;;;;5052453;28;20107;-83
2022/04/29 02:05:37;;;;;;;10.87;7.00;;;4.00;99.90;;;;;;5052178;28;20049;-83
2022/04/29 02:08:04;;;;;;;11.37;6.70;;;4.00;99.90;;;;;;5052774;28;20140;-83
2022/04/29 02:10:30;;;;;;;10.17;7.10;;;3.90;99.90;;;;;;5052242;28;20043;-82
2022/04/29 02:12:55;;;;;;;11.63;6.37;;;3.90;99.90;;;;;;5052406;28;20037;-83
2022/04/29 02:15:21;;;;;;;12.83;7.00;;;3.80;99.90;;;;;;5052527;28;20053;-83
2022/04/29 02:17:47;;;;;;;12.03;7.10;;;3.80;99.90;;;;;;5052331;28;20029;-83
2022/04/29 02:20:12;;;;;;;11.80;6.90;;;3.90;99.90;;;;;;5052336;28;20033;-83
2022/04/29 02:22:39;;;;;;;9.73;6.60;;;3.80;99.90;;;;;;5052401;28;20025;-83
2022/04/29 02:25:06;;;;;;;13.87;7.80;;;3.80;99.90;;;;;;5052211;28;20218;-82
2022/04/29 02:27:31;;;;;;;12.70;7.20;;;3.80;99.90;;;;;;5052389;28;20044;-83
2022/04/29 02:29:57;;;;;;;9.33;7.13;;;3.80;99.90;;;;;;5052196;28;20029;-83
2022/04/29 02:32:22;;;;;;;9.67;6.60;;;3.80;99.90;;;;;;5034120;28;20056;-83
2022/04/29 02:34:48;;;;;;;9.93;7.17;;;3.70;99.90;;;;;;5051954;28;20040;-83
2022/04/29 02:37:14;;;;;;;9.17;6.30;;;3.70;99.90;;;;;;5051840;28;20028;-83
2022/04/29 02:39:39;;;;;;;9.90;7.17;;;3.70;99.90;;;;;;5052150;28;20029;-83
2022/04/29 02:42:07;;;;;;;8.57;6.93;;;3.70;99.90;;;;;;5052048;28;20025;-83
2022/04/29 02:44:33;;;;;;;12.37;7.30;;;3.70;99.90;;;;;;5052100;28;20025;-82
2022/04/29 02:47:07;;;;;;;22.33;7.77;;;3.60;99.90;;;;;;5052095;28;20048;-83
2022/04/29 02:49:38;;;;;;;12.40;6.97;;;3.60;99.90;;;;;;5053437;28;20032;-83
2022/04/29 02:52:04;;;;;;;12.53;7.10;;;3.50;99.90;;;;;;5055676;28;20680;-83
2022/04/29 02:54:30;;;;;;;11.67;7.23;;;3.50;99.90;;;;;;5037739;28;20048;-82
2022/04/29 02:56:56;;;;;;;9.23;6.60;;;3.40;99.90;;;;;;5055202;28;20470;-83
2022/04/29 02:59:21;;;;;;;9.67;7.13;;;3.40;99.90;;;;;;5055626;28;20128;-83
2022/04/29 03:01:47;;;;;;;13.37;7.73;;;3.40;99.90;;;;;;5055872;28;20338;-83
2022/04/29 03:04:13;;;;;;;9.83;6.77;;;3.30;99.90;;;;;;5055298;28;20027;-83
2022/04/29 03:06:39;;;;;;;12.37;7.70;;;3.30;99.90;;;;;;5055311;28;20049;-83
2022/04/29 03:09:04;;;;;;;10.33;7.43;;;3.30;99.90;;;;;;5055294;28;20040;-83
2022/04/29 03:11:30;;;;;;;15.60;7.50;;;3.30;99.90;;;;;;5055326;28;20045;-83
2022/04/29 03:13:56;;;;;;;10.00;6.43;;;3.30;99.90;;;;;;5055215;28;20039;-83
2022/04/29 03:16:21;;;;;;;9.07;6.77;;;3.40;99.90;;;;;;5055344;28;20025;-83
2022/04/29 03:18:47;;;;;;;10.63;7.47;;;3.40;99.90;;;;;;5054881;28;20029;-83
2022/04/29 03:21:13;;;;;;;10.37;7.07;;;3.30;99.90;;;;;;5055292;28;20082;-83
2022/04/29 03:23:39;;;;;;;13.30;7.73;;;3.30;99.90;;;;;;5055506;28;20029;-83
2022/04/29 03:26:05;;;;;;;12.23;7.70;;;3.10;99.90;;;;;;5053963;28;20028;-83
2022/04/29 03:28:31;;;;;;;15.83;7.73;;;3.00;99.90;;;;;;5055156;28;20029;-83
2022/04/29 03:30:58;;;;;;;11.57;7.53;;;3.00;99.90;;;;;;5054772;28;20025;-83
2022/04/29 03:33:24;;;;;;;9.83;7.30;;;3.00;99.90;;;;;;5054718;28;20437;-83
2022/04/29 03:35:55;;;;;;;12.23;7.27;;;2.90;99.90;;;;;;5054745;28;20112;-83
2022/04/29 03:38:22;;;;;;;17.13;8.03;;;2.90;99.90;;;;;;5054642;28;20025;-83
2022/04/29 03:40:47;;;;;;;10.87;7.87;;;2.80;99.90;;;;;;5054853;28;20040;-83
2022/04/29 03:43:13;;;;;;;10.10;7.63;;;2.80;99.90;;;;;;5054507;28;20025;-83
2022/04/29 03:45:39;;;;;;;16.97;8.27;;;2.80;99.90;;;;;;5054520;28;20071;-83
2022/04/29 03:48:05;;;;;;;9.97;7.37;;;2.80;99.90;;;;;;5054611;28;20451;-83
2022/04/29 03:50:32;;;;;;;10.80;7.50;;;2.80;99.90;;;;;;5054389;28;20120;-83
2022/04/29 03:53:01;;;;;;;10.17;8.00;;;2.80;99.90;;;;;;5036580;28;20082;-83
2022/04/29 03:55:29;;;;;;;12.83;8.40;;;2.70;99.90;;;;;;5036658;28;20056;-83
2022/04/29 03:57:56;;;;;;;13.07;8.30;;;2.70;99.90;;;;;;5053799;28;20017;-83
2022/04/29 04:00:24;;;;;;;10.83;7.67;;;2.70;99.90;;;;;;5053721;28;20032;-83
2022/04/29 04:02:50;;;;;;;12.83;8.67;;;2.70;99.90;;;;;;5054096;28;20021;-83
2022/04/29 04:05:17;;;;;;;12.17;8.60;;;2.70;99.90;;;;;;5054235;28;20492;-83
2022/04/29 04:07:44;;;;;;;12.87;8.47;;;2.80;99.90;;;;;;5054244;28;20059;-84
2022/04/29 04:10:10;;;;;;;11.43;8.23;;;2.70;99.90;;;;;;5053537;28;20135;-84
2022/04/29 04:12:40;;;;;;;12.33;8.13;;;2.80;99.90;;;;;;5039576;28;20028;-80
2022/04/29 04:15:07;;;;;;;12.50;8.27;;;2.80;99.90;;;;;;5060385;28;20033;-82
2022/04/29 04:17:33;;;;;;;13.43;8.30;;;2.80;99.90;;;;;;5057428;28;20359;-82
2022/04/29 04:19:58;;;;;;;20.00;8.57;;;2.80;99.90;;;;;;5057087;28;20043;-81
2022/04/29 04:22:24;;;;;;;16.90;8.70;;;2.80;99.90;;;;;;5056556;28;20032;-81
2022/04/29 04:24:50;;;;;;;14.90;8.23;;;2.70;99.90;;;;;;5057207;28;20041;-81
2022/04/29 04:27:15;;;;;;;15.53;8.50;;;2.70;99.90;;;;;;5057092;28;20064;-82
2022/04/29 04:29:41;;;;;;;13.60;8.87;;;2.80;99.90;;;;;;5057323;28;20443;-81
2022/04/29 04:32:06;;;;;;;17.10;8.97;;;2.70;99.90;;;;;;5057162;28;20025;-82
2022/04/29 04:34:50;;;;;;;19.80;8.77;;;2.80;99.90;;;;;;5056656;28;20085;-81
2022/04/29 04:37:24;;;;;;;15.83;8.63;;;2.80;99.90;;;;;;5057130;28;20409;-81
2022/04/29 04:39:51;;;;;;;17.53;8.27;;;2.90;99.90;;;;;;5057463;28;20039;-82
2022/04/29 04:42:17;;;;;;;13.97;9.13;;;2.90;99.90;;;;;;5054071;28;20083;-81
2022/04/29 04:44:46;;;;;;;15.80;8.13;;;2.90;99.90;;;;;;5056697;28;20024;-81
2022/04/29 04:47:12;;;;;;;17.37;9.30;;;3.00;99.90;;;;;;5053915;28;20091;-81
2022/04/29 04:49:38;;;;;;;17.87;10.10;;;3.00;99.90;;;;;;5056103;28;20434;-81
2022/04/29 04:52:04;;;;;;;18.37;10.40;;;3.10;99.90;;;;;;5058512;28;20063;-81
2022/04/29 04:54:29;;;;;;;12.93;8.70;;;3.30;99.90;;;;;;5055755;28;20033;-81
2022/04/29 04:56:55;;;;;;;14.57;9.60;;;3.50;99.90;;;;;;5036727;28;20031;-81
2022/04/29 04:59:20;;;;;;;16.30;10.13;;;3.70;99.90;;;;;;5053902;28;20025;-80
2022/04/29 05:01:46;;;;;;;13.50;8.40;;;3.80;99.90;;;;;;5054092;28;20029;-81
2022/04/29 05:04:12;;;;;;;14.47;8.70;;;3.90;99.90;;;;;;5048462;28;20029;-80
2022/04/29 05:06:37;;;;;;;16.13;8.30;;;3.90;99.90;;;;;;5030636;28;20040;-81
2022/04/29 05:09:07;;;;;;;19.00;8.13;;;4.00;99.90;;;;;;5039078;28;20435;-80
2022/04/29 05:11:33;;;;;;;12.00;8.20;;;4.00;99.90;;;;;;5055114;28;20052;-81
2022/04/29 05:13:59;;;;;;;12.17;8.13;;;4.00;99.90;;;;;;5055933;28;20426;-80
2022/04/29 05:16:25;;;;;;;16.00;9.33;;;4.10;99.90;;;;;;5038703;28;20029;-80
2022/04/29 05:18:51;;;;;;;13.90;9.23;;;4.20;99.90;;;;;;5055445;28;20071;-80
2022/04/29 05:21:17;;;;;;;14.83;9.47;;;4.30;99.90;;;;;;5053634;28;20033;-80
2022/04/29 05:23:43;;;;;;;12.67;8.63;;;4.40;99.90;;;;;;5054797;28;20031;-80
2022/04/29 05:26:09;;;;;;;14.40;8.43;;;4.50;99.90;;;;;;5038015;28;20021;-81
2022/04/29 05:28:34;;;;;;;18.87;11.43;;;4.60;99.90;;;;;;5055642;28;20032;-80
2022/04/29 05:31:01;;;;;;;21.67;10.80;;;4.80;99.90;;;;;;5055876;28;20048;-80
2022/04/29 05:33:27;;;;;;;15.63;9.07;;;4.90;99.90;;;;;;5056705;28;20042;-80
2022/04/29 05:35:53;;;;;;;17.17;9.13;;;5.00;99.90;;;;;;5057837;28;20029;-80
2022/04/29 05:38:19;;;;;;;17.73;10.67;;;5.10;99.90;;;;;;5057512;28;20124;-80
2022/04/29 05:43:30;;;;;;;22.37;10.77;;;5.50;99.90;;;;;;5059148;28;20059;-81
2022/04/29 05:45:56;;;;;;;20.57;11.13;;;5.90;99.90;;;;;;5059151;28;20025;-81
2022/04/29 05:48:21;;;;;;;23.30;10.50;;;6.20;99.90;;;;;;5039002;28;20036;-78
2022/04/29 05:50:48;;;;;;;21.97;10.67;;;6.40;99.90;;;;;;5034383;28;20033;-76
2022/04/29 05:53:15;;;;;;;17.53;10.43;;;6.50;99.90;;;;;;5050927;28;20031;-76
2022/04/29 05:55:40;;;;;;;25.90;9.67;;;6.80;99.90;;;;;;5052025;28;20469;-76
2022/04/29 05:58:06;;;;;;;25.90;10.17;;;7.00;99.90;;;;;;5052635;28;20072;-77
2022/04/29 06:00:32;;;;;;;21.03;9.57;;;7.20;99.90;;;;;;5049882;28;20033;-76
2022/04/29 06:02:57;;;;;;;18.97;9.33;;;7.50;99.90;;;;;;5050008;28;20029;-76
2022/04/29 06:05:24;;;;;;;19.70;8.63;;;7.70;99.90;;;;;;5052568;28;20052;-76
2022/04/29 06:07:49;;;;;;;14.73;8.40;;;7.90;99.90;;;;;;5052053;28;20017;-76
2022/04/29 06:10:15;;;;;;;18.07;9.53;;;8.10;99.90;;;;;;5014808;28;20566;-76
2022/04/29 06:12:42;;;;;;;19.13;10.10;;;8.30;99.90;;;;;;5032781;28;20458;-76
2022/04/29 06:15:13;;;;;;;13.13;9.00;;;8.60;99.90;;;;;;5032545;28;20026;-77
2022/04/29 06:17:39;;;;;;;14.30;8.37;;;8.90;99.90;;;;;;5037074;28;20033;-78
2022/04/29 06:20:05;;;;;;;17.97;9.07;;;9.30;99.90;;;;;;5050483;28;20044;-77
2022/04/29 06:22:32;;;;;;;22.30;10.47;;;9.30;99.90;;;;;;5049878;28;20033;-76
2022/04/29 06:24:57;;;;;;;17.10;10.53;;;9.40;99.90;;;;;;5052852;28;20029;-77
2022/04/29 06:27:23;;;;;;;16.10;10.37;;;9.60;99.90;;;;;;5054055;28;20103;-77
2022/04/29 06:29:48;;;;;;;17.23;10.17;;;9.80;99.90;;;;;;5052660;28;20136;-77
2022/04/29 06:32:14;;;;;;;20.77;10.60;;;10.00;99.90;;;;;;5053903;28;20366;-77
2022/04/29 06:34:40;;;;;;;15.17;10.07;;;10.00;99.90;;;;;;5053705;28;20040;-77
2022/04/29 06:37:06;;;;;;;16.07;9.90;;;10.00;99.90;;;;;;5053953;28;20055;-77
2022/04/29 06:39:32;;;;;;;16.50;9.33;;;10.10;99.90;;;;;;5054206;28;20029;-77
2022/04/29 06:41:57;;;;;;;13.83;8.63;;;10.20;99.90;;;;;;5045896;28;20116;-77
2022/04/29 06:44:23;;;;;;;16.17;8.97;;;10.50;99.90;;;;;;5048058;28;20033;-77
2022/04/29 06:46:50;;;;;;;11.93;8.07;;;10.90;99.90;;;;;;5053886;28;20025;-77
2022/04/29 06:49:16;;;;;;;17.27;8.90;;;10.80;99.90;;;;;;5053659;28;20186;-77
2022/04/29 06:51:42;;;;;;;14.77;9.30;;;10.90;99.90;;;;;;5053864;28;20032;-77
2022/04/29 06:54:08;;;;;;;13.37;9.17;;;11.00;99.90;;;;;;5054069;28;20078;-77
2022/04/29 06:56:34;;;;;;;17.27;9.07;;;11.20;99.90;;;;;;5053687;28;20032;-77
2022/04/29 06:58:59;;;;;;;21.83;11.33;;;11.20;99.90;;;;;;5053031;28;20039;-77
2022/04/29 07:01:25;;;;;;;16.03;9.20;;;11.20;99.90;;;;;;5053610;28;20033;-77
2022/04/29 07:03:51;;;;;;;15.70;8.43;;;11.10;99.90;;;;;;5035639;28;20021;-77
2022/04/29 07:06:17;;;;;;;15.50;9.00;;;11.40;99.90;;;;;;5053403;28;20375;-77
2022/04/29 07:08:43;;;;;;;15.80;7.93;;;11.80;99.90;;;;;;5053797;28;20462;-77
2022/04/29 07:11:08;;;;;;;15.82;7.90;;;11.90;99.90;;;;;;5052967;28;20561;-77
2022/04/29 07:13:34;;;;;;;19.47;8.83;;;12.00;99.90;;;;;;5054150;28;20040;-77
2022/04/29 07:15:59;;;;;;;11.70;7.83;;;12.00;99.90;;;;;;5035518;28;20026;-77
2022/04/29 07:18:25;;;;;;;15.47;7.57;;;12.20;99.90;;;;;;5054477;28;20079;-77
2022/04/29 07:20:51;;;;;;;10.03;7.77;;;12.20;99.90;;;;;;5054561;28;20104;-80
2022/04/29 07:23:16;;;;;;;7.85;6.05;;;12.40;99.90;;;;;;5063793;28;20035;-81
2022/04/29 07:25:42;;;;;;;15.40;7.35;;;12.50;99.90;;;;;;5066297;28;20021;-80
2022/04/29 07:28:07;;;;;;;9.17;6.30;;;12.60;99.90;;;;;;5048661;28;20024;-80
2022/04/29 07:30:33;;;;;;;8.38;5.68;;;12.60;99.90;;;;;;5050707;28;20016;-80
2022/04/29 07:32:58;;;;;;;9.85;5.63;;;12.90;99.90;;;;;;5073138;28;20080;-80
2022/04/29 07:43:38;;;;;;;9.85;5.20;;;13.40;99.90;;;;;;5076125;28;20052;-81
2022/04/29 07:46:04;;;;;;;12.23;5.00;;;13.70;99.90;;;;;;5077138;28;20033;-80
2022/04/29 07:48:30;;;;;;;10.23;5.10;;;13.70;99.90;;;;;;5077220;28;20047;-80
2022/04/29 07:50:56;;;;;;;11.48;5.35;;;13.80;99.90;;;;;;5076870;28;20045;-80
2022/04/29 07:53:22;;;;;;;8.10;4.53;;;14.10;99.90;;;;;;5075624;28;20052;-80
2022/04/29 07:55:47;;;;;;;7.57;4.32;;;14.30;99.90;;;;;;5076527;28;20025;-80
2022/04/29 07:58:14;;;;;;;6.10;3.88;;;14.40;99.90;;;;;;5054571;28;20029;-80
2022/04/29 08:00:40;;;;;;;6.38;4.28;;;14.60;99.90;;;;;;5047792;28;20032;-80
2022/04/29 08:03:06;;;;;;;9.10;4.43;;;14.60;99.90;;;;;;5057157;28;20021;-80
2022/04/29 08:05:32;;;;;;;5.85;3.47;;;14.70;99.90;;;;;;5057791;28;20090;-80
2022/04/29 08:08:00;;;;;;;5.00;3.65;;;14.70;99.90;;;;;;5061373;28;20055;-81
2022/04/29 08:10:30;;;;;;;5.72;3.92;;;14.70;99.90;;;;;;5071727;28;20013;-81
2022/04/29 08:12:58;;;;;;;6.15;3.92;;;14.70;99.90;;;;;;5074777;28;20088;-81
2022/04/29 08:15:28;;;;;;;8.60;4.13;;;14.90;99.90;;;;;;5075095;28;20021;-81
2022/04/29 08:17:53;;;;;;;6.88;4.32;;;15.00;99.50;;;;;;5072058;28;20174;-81
2022/04/29 08:20:20;;;;;;;8.77;4.28;;;15.20;99.30;;;;;;5068013;28;20020;-81
2022/04/29 08:22:45;;;;;;;6.10;3.53;;;15.30;97.30;;;;;;5052405;28;20372;-81
2022/04/29 08:25:11;;;;;;;7.57;3.58;;;15.40;97.80;;;;;;5068120;28;20071;-81
2022/04/29 08:27:37;;;;;;;8.10;4.03;;;15.40;97.70;;;;;;5067514;28;20036;-81
2022/04/29 08:30:06;;;;;;;8.88;4.03;;;15.50;95.00;;;;;;5065618;28;20032;-81
2022/04/29 08:32:43;;;;;;;11.65;4.68;;;15.60;94.90;;;;;;5056947;28;20409;-80
2022/04/29 08:35:12;;;;;;;7.68;4.05;;;15.60;95.50;;;;;;5055763;28;20074;-80
2022/04/29 08:37:41;;;;;;;10.35;4.07;;;15.60;95.80;;;;;;5055297;28;20108;-80
2022/04/29 08:40:08;;;;;;;7.53;4.05;;;15.60;96.00;;;;;;5054514;28;20454;-81
2022/04/29 08:42:40;;;;;;;7.30;3.80;;;15.80;96.10;;;;;;5056160;28;20114;-80
2022/04/29 08:45:08;;;;;;;5.75;4.10;;;15.70;94.90;;;;;;5055982;28;20017;-80
2022/04/29 08:47:39;;;;;;;10.02;3.83;;;15.80;94.30;;;;;;5056701;28;20380;-80
2022/04/29 08:50:07;;;;;;;7.20;3.55;;;15.70;93.80;;;;;;5056009;28;20025;-81
2022/04/29 08:52:37;;;;;;;6.63;3.40;;;15.80;92.20;;;;;;5056043;28;20093;-81
2022/04/29 09:00:38;;;;;;;7.43;3.65;;;16.30;88.80;;;;;;5055632;28;20039;-80
2022/04/29 09:03:05;;;;;;;7.07;3.65;;;16.70;86.20;;;;;;5052576;28;20029;-69
2022/04/29 09:05:33;;;;;;;6.72;3.33;;;17.00;85.90;;;;;;5048871;28;20114;-68
2022/04/29 09:08:01;;;;;;;5.55;3.50;;;17.10;83.80;;;;;;5046426;28;20024;-67
2022/04/29 09:10:36;;;;;;;6.97;3.17;;;17.30;82.60;;;;;;5041739;28;20380;-68
2022/04/29 09:13:15;;;;;;;;;;;17.50;84.20;;;;;;5043617;28;20421;-69
2022/04/29 09:16:01;;;;;;;7.47;3.53;;;17.70;83.50;;;;;;5040953;28;19913;-68
2022/04/29 09:18:53;;;;;;;9.48;3.65;;;18.00;80.80;;;;;;5037695;28;20095;-68
2022/04/29 09:21:31;;;;;;;7.22;3.30;;;18.20;79.20;;;;;;5044985;28;20017;-69
2022/04/29 09:24:10;;;;;;;7.82;3.10;;;18.20;80.40;;;;;;5047028;28;20116;-68
2022/04/29 09:26:38;;;;;;;7.63;3.67;;;18.20;75.00;;;;;;5046946;28;20049;-68
2022/04/29 09:29:14;;;;;;;5.88;3.13;;;18.10;73.60;;;;;;5046872;28;20032;-72
2022/04/29 09:32:00;;;;;;;6.55;3.10;;;17.90;76.50;;;;;;5045689;28;20376;-69
2022/04/29 09:34:47;;;;;;;8.38;3.88;;;17.70;74.50;;;;;;5042960;28;20050;-71
2022/04/29 09:37:14;;;;;;;5.88;3.30;;;18.00;76.10;;;;;;5042207;28;20040;-69
2022/04/29 09:39:54;;;;;;;4.95;3.30;;;18.40;75.70;;;;;;5047549;28;20035;-70
2022/04/29 09:42:21;;;;;;;4.63;3.58;;;18.60;75.30;;;;;;5048500;28;20041;-71
2022/04/29 09:44:46;;;;;;;6.80;3.45;;;18.80;73.50;;;;;;5045760;28;20034;-71
2022/04/29 09:47:14;;;;;;;9.98;3.33;;;19.20;73.10;;;;;;5045929;28;20040;-71
2022/04/29 09:49:50;;;;;;;6.47;3.15;;;19.30;71.70;;;;;;5047787;28;20096;-68
2022/04/29 09:52:19;;;;;;;7.97;3.42;;;19.40;71.60;;;;;;5044153;28;20025;-71
2022/04/29 09:54:45;;;;;;;9.15;3.60;;;19.60;69.70;;;;;;5052640;28;20097;-71
2022/04/29 09:57:11;;;;;;;4.45;3.28;;;19.20;70.10;;;;;;5051900;28;20116;-72
2022/04/29 09:59:40;;;;;;;7.15;3.40;;;19.30;72.40;;;;;;5051154;28;20025;-72
2022/04/29 10:02:06;;;;;;;7.75;3.50;;;19.70;71.20;;;;;;5052066;28;20021;-72
2022/04/29 10:04:34;;;;;;;7.63;3.47;;;19.90;69.70;;;;;;5051574;28;20085;-71
2022/04/29 10:07:03;;;;;;;9.15;3.53;;;19.80;69.40;;;;;;5051265;28;20377;-72
2022/04/29 10:09:32;;;;;;;5.38;3.50;;;20.10;69.70;;;;;;5050784;28;20082;-72
2022/04/29 10:12:00;;;;;;;10.40;3.65;;;20.70;68.30;;;;;;5051657;28;20035;-71
2022/04/29 10:14:28;;;;;;;7.63;3.38;;;20.90;71.40;;;;;;5052132;28;20484;-71
2022/04/29 10:22:33;;;;;;;7.80;3.42;;;20.40;65.80;;;;;;5051407;28;20404;-72
2022/04/29 10:25:00;;;;;;;4.90;3.30;;;20.30;65.40;;;;;;5052618;28;20028;-71
2022/04/29 10:27:27;;;;;;;6.05;4.13;;;20.10;66.30;;;;;;5053053;28;20453;-71
2022/04/29 10:29:53;;;;;;;7.55;4.07;;;20.20;65.20;;;;;;5051412;28;20033;-70
2022/04/29 10:32:19;;;;;;;4.18;3.25;;;20.10;68.80;;;;;;5052626;28;20033;-71
2022/04/29 10:34:45;;;;;;;4.97;3.55;;;20.30;67.30;;;;;;5052315;28;20476;-70
2022/04/29 10:37:12;;;;;;;7.47;3.65;;;20.50;66.40;;;;;;5043583;28;20102;-69
2022/04/29 10:39:39;;;;;;;6.15;3.42;;;20.50;65.80;;;;;;5019029;28;20056;-69
2022/04/29 10:42:08;;;;;;;5.28;3.38;;;20.40;70.10;;;;;;5039288;28;20465;-70
2022/04/29 10:44:35;;;;;;;7.18;3.50;;;20.50;67.80;;;;;;5050381;28;20054;-72
2022/04/29 10:47:24;;;;;;;4.57;3.47;;;20.60;65.90;;;;;;5050520;28;20815;-68
2022/04/29 10:49:49;;;;;;;7.22;3.50;;;20.80;68.20;;;;;;5051859;28;20146;-68
2022/04/29 10:52:26;;;;;;;6.68;3.88;;;20.90;63.80;;;;;;5051866;28;20200;-68
2022/04/29 10:54:58;;;;;;;6.35;3.58;;;20.80;68.50;;;;;;5051841;28;20111;-68
2022/04/29 10:57:47;;;;;;;4.75;3.78;;;21.00;67.80;;;;;;5050990;28;20028;-68
2022/04/29 11:00:14;;;;;;;7.32;3.70;;;21.20;65.60;;;;;;5041286;28;20112;-70
2022/04/29 11:02:39;;;;;;;6.35;3.45;;;21.10;66.00;;;;;;5046877;28;20051;-68
2022/04/29 11:05:07;;;;;;;5.25;3.42;;;21.20;63.80;;;;;;5039507;28;20188;-70
2022/04/29 11:07:38;;;;;;;7.95;3.58;;;21.10;64.20;;;;;;5037883;28;20010;-71
2022/04/29 11:10:06;;;;;;;5.65;4.20;;;21.20;63.30;;;;;;5100276;23;20071;-71
2022/04/29 11:12:34;;;;;;;8.43;3.60;;;20.80;66.00;;;;;;5093203;28;20074;-71
2022/04/29 11:15:10;;;;;;;5.78;3.65;;;21.00;65.80;;;;;;5094120;28;20012;-72
2022/04/29 11:17:37;;;;;;;5.57;3.50;;;20.70;64.10;;;;;;5092289;28;20027;-72
2022/04/29 11:20:38;;;;;;;5.47;4.22;;;20.60;64.90;;;;;;5079067;28;20087;-72
2022/04/29 11:25:54;;;;;;;6.28;3.80;;;20.40;64.70;;;;;;5075024;28;20079;-71
2022/04/29 11:28:21;;;;;;;7.40;3.83;;;20.50;66.90;;;;;;5073390;28;20054;-70
2022/04/29 11:30:48;;;;;;;5.30;3.83;;;20.40;64.20;;;;;;5079974;28;20028;-70
2022/04/29 11:33:13;;;;;;;5.93;4.03;;;20.70;66.40;;;;;;5093042;28;20103;-72
2022/04/29 11:35:39;;;;;;;6.80;4.38;;;21.00;64.30;;;;;;5093029;28;20115;-68
2022/04/29 11:38:08;;;;;;;7.25;4.20;;;21.10;64.00;;;;;;5087343;28;20043;-69
2022/04/29 11:40:39;;;;;;;9.32;5.07;;;21.30;66.20;;;;;;5090106;28;20388;-71
2022/04/29 11:43:10;;;;;;;4.82;3.53;;;21.60;62.30;;;;;;5084937;28;20020;-72
2022/04/29 11:45:37;;;;;;;9.63;3.33;;;22.00;62.10;;;;;;5086313;28;20418;-73
2022/04/29 11:48:07;;;;;;;6.32;3.80;;;22.20;60.90;;;;;;5087057;28;20024;-75
2022/04/29 11:50:33;;;;;;;5.13;3.75;;;22.30;60.40;;;;;;5081657;28;20821;-72
2022/04/29 11:53:10;;;;;;;7.55;3.30;;;22.20;60.90;;;;;;5076817;28;20024;-71
2022/04/29 11:55:36;;;;;;;5.53;3.17;;;21.80;63.20;;;;;;5080526;28;20153;-72
2022/04/29 11:58:04;;;;;;;5.35;4.07;;;22.00;60.80;;;;;;5077786;28;20028;-71
2022/04/29 12:00:32;;;;;;;6.55;4.07;;;22.40;60.90;;;;;;5085637;28;20020;-69
2022/04/29 12:02:59;;;;;;;6.57;4.00;;;22.40;60.20;;;;;;5083079;28;20037;-71
2022/04/29 12:05:27;;;;;;;8.68;4.40;;;22.20;60.50;;;;;;5078313;28;20095;-69
2022/04/29 12:07:53;;;;;;;5.90;4.13;;;22.20;61.50;;;;;;5090617;28;20051;-84
2022/04/29 12:10:28;;;;;;;6.45;4.20;;;22.40;62.20;;;;;;5084158;28;20451;-68
2022/04/29 12:12:55;;;;;;;8.55;4.50;;;22.50;60.60;;;;;;5084252;28;20036;-68
2022/04/29 12:15:26;;;;;;;6.88;4.30;;;22.40;58.60;;;;;;5079652;28;20028;-69
2022/04/29 12:18:00;;;;;;;8.20;4.50;;;22.30;61.10;;;;;;5078323;28;20016;-69
2022/04/29 12:20:26;;;;;;;6.80;4.70;;;22.20;60.20;;;;;;5083806;28;20557;-70
2022/04/29 12:22:52;;;;;;;5.45;4.10;;;22.10;58.90;;;;;;5086979;28;20035;-70
2022/04/29 12:25:30;;;;;;;9.57;4.68;;;21.90;61.10;;;;;;5084577;28;20020;-70
2022/04/29 12:28:16;;;;;;;5.68;4.25;;;21.90;60.20;;;;;;5081625;28;20687;-70
2022/04/29 12:37:06;;;;;;;6.43;4.78;;;21.20;61.40;;;;;;5081355;28;20043;-70
2022/04/29 12:39:40;;;;;;;6.97;4.40;;;21.50;62.40;;;;;;5087600;28;20712;-70
2022/04/29 12:42:14;;;;;;;7.63;4.37;;;21.80;59.60;;;;;;5078452;28;20127;-68
2022/04/29 12:47:53;;;;;;;8.35;6.10;;;22.10;59.40;;;;;;5080985;28;20027;-69
2022/04/29 12:50:29;;;;;;;7.20;5.45;;;22.40;61.20;;;;;;5081500;28;20073;-68
2022/04/29 12:53:12;;;;;;;6.88;4.50;;;22.50;63.70;;;;;;5078119;28;20055;-68
2022/04/29 12:55:44;;;;;;;8.05;5.13;;;22.50;57.90;;;;;;5076771;28;20012;-70
2022/04/29 12:58:14;;;;;;;9.73;5.63;;;22.60;58.40;;;;;;5075723;28;20032;-69
2022/04/29 13:00:45;;;;;;;9.45;5.88;;;22.20;58.90;;;;;;5081798;28;20376;-69
2022/04/29 13:03:21;;;;;;;10.40;6.05;;;21.90;59.60;;;;;;5076929;28;20020;-70
2022/04/29 13:05:48;;;;;;;7.57;5.60;;;22.10;61.40;;;;;;5077320;28;20020;-70
2022/04/29 13:08:14;;;;;;;6.30;4.85;;;22.40;62.40;;;;;;5080809;28;20556;-70
2022/04/29 13:10:51;;;;;;;10.38;5.55;;;22.30;61.00;;;;;;5070976;28;20368;-68
2022/04/29 13:13:18;;;;;;;6.13;4.50;;;22.20;60.00;;;;;;5079672;28;20804;-70
2022/04/29 13:15:44;;;;;;;6.00;4.32;;;22.40;56.70;;;;;;5085038;28;20031;-68
2022/04/29 13:18:11;;;;;;;8.38;5.40;;;22.10;59.90;;;;;;5074334;28;20031;-70
2022/04/29 13:20:38;;;;;;;6.72;4.63;;;22.00;58.80;;;;;;5080123;28;20048;-70
2022/04/29 13:23:04;;;;;;;6.40;5.10;;;22.10;59.30;;;;;;5074955;28;20036;-70